createdAt,value
2023-04-24T00:00:19.070Z,6.97
2023-04-24T00:00:41.946Z,6.96
2023-04-24T00:01:03.766Z,6.95
2023-04-24T00:01:25.548Z,6.94
2023-04-24T00:01:47.306Z,6.94
2023-04-24T00:02:12.293Z,6.92
2023-04-24T00:02:34.534Z,6.91
2023-04-24T00:02:59.233Z,6.91
2023-04-24T00:03:22.385Z,6.89
2023-04-24T00:03:44.478Z,6.88
2023-04-24T00:04:08.244Z,6.87
2023-04-24T00:04:31.386Z,6.86
2023-04-24T00:04:53.256Z,6.85
2023-04-24T00:05:15.463Z,6.84
2023-04-24T00:05:37.351Z,6.83
2023-04-24T00:06:00.239Z,6.82
2023-04-24T00:06:24.813Z,6.81
2023-04-24T00:06:50.651Z,6.80
2023-04-24T00:07:14.042Z,6.78
2023-04-24T00:07:36.188Z,6.77
2023-04-24T00:07:57.979Z,6.76
2023-04-24T00:08:19.761Z,6.75
2023-04-24T00:08:41.559Z,6.74
2023-04-24T00:09:03.839Z,6.74
2023-04-24T00:09:25.832Z,6.72
2023-04-24T00:09:47.615Z,6.72
2023-04-24T00:11:03.192Z,6.74
2023-04-24T00:11:24.913Z,6.68
2023-04-24T00:11:46.762Z,6.68
2023-04-24T00:12:08.547Z,6.68
2023-04-24T00:12:30.852Z,6.68
2023-04-24T00:12:52.654Z,6.68
2023-04-24T00:13:14.410Z,6.71
2023-04-24T00:13:36.303Z,6.72
2023-04-24T00:13:58.087Z,6.74
2023-04-24T00:14:21.300Z,6.75
2023-04-24T00:14:43.088Z,6.77
2023-04-24T00:15:05.408Z,6.78
2023-04-24T00:15:27.163Z,6.80
2023-04-24T00:15:48.948Z,6.81
2023-04-24T00:16:10.768Z,6.82
2023-04-24T00:16:32.582Z,6.83
2023-04-24T00:16:54.416Z,6.84
2023-04-24T00:17:16.600Z,6.85
2023-04-24T00:17:38.583Z,6.85
2023-04-24T00:18:02.424Z,6.85
2023-04-24T00:18:24.308Z,6.86
2023-04-24T00:18:46.227Z,6.85
2023-04-24T00:19:08.390Z,6.85
2023-04-24T00:19:30.275Z,6.84
2023-04-24T00:19:52.474Z,6.83
2023-04-24T00:20:15.888Z,6.83
2023-04-24T00:20:37.668Z,6.82
2023-04-24T00:20:59.997Z,6.81
2023-04-24T00:21:22.725Z,6.80
2023-04-24T00:21:44.558Z,6.79
2023-04-24T00:22:06.360Z,6.79
2023-04-24T00:22:31.913Z,6.78
2023-04-24T00:22:53.900Z,6.78
2023-04-24T00:23:15.586Z,6.76
2023-04-24T00:23:37.365Z,6.75
2023-04-24T00:23:59.356Z,6.74
2023-04-24T00:24:21.282Z,6.73
2023-04-24T00:24:43.134Z,6.72
2023-04-24T00:25:05.220Z,6.71
2023-04-24T00:25:27.106Z,6.70
2023-04-24T00:25:48.891Z,6.69
2023-04-24T00:26:10.674Z,6.68
2023-04-24T00:26:32.606Z,6.67
2023-04-24T00:26:54.320Z,6.65
2023-04-24T00:27:16.063Z,6.64
2023-04-24T00:27:38.397Z,6.64
2023-04-24T00:28:00.316Z,6.63
2023-04-24T00:28:22.098Z,6.61
2023-04-24T00:28:44.101Z,6.60
2023-04-24T00:29:05.974Z,6.59
2023-04-24T00:29:27.969Z,6.58
2023-04-24T00:29:49.690Z,6.57
2023-04-24T00:30:12.045Z,6.56
2023-04-24T00:30:33.852Z,6.55
2023-04-24T00:30:55.901Z,6.55
2023-04-24T00:31:17.923Z,6.53
2023-04-24T00:31:39.808Z,6.53
2023-04-24T00:32:01.555Z,6.53
2023-04-24T00:32:23.389Z,6.53
2023-04-24T00:32:45.473Z,6.53
2023-04-24T00:33:07.267Z,6.55
2023-04-24T00:33:29.431Z,6.55
2023-04-24T00:33:51.219Z,6.57
2023-04-24T00:34:13.629Z,6.58
2023-04-24T00:34:35.518Z,6.58
2023-04-24T00:34:57.288Z,6.60
2023-04-24T00:35:21.117Z,6.61
2023-04-24T00:35:42.915Z,6.61
2023-04-24T00:36:06.916Z,6.62
2023-04-24T00:36:28.723Z,6.63
2023-04-24T00:36:53.391Z,6.63
2023-04-24T00:37:15.155Z,6.62
2023-04-24T00:37:40.006Z,6.62
2023-04-24T00:38:01.792Z,6.61
2023-04-24T00:38:23.600Z,6.60
2023-04-24T00:38:46.079Z,6.60
2023-04-24T00:39:10.938Z,6.59
2023-04-24T00:39:32.918Z,6.57
2023-04-24T00:39:54.705Z,6.56
2023-04-24T00:40:16.412Z,6.55
2023-04-24T00:40:38.273Z,6.54
2023-04-24T00:41:00.056Z,6.53
2023-04-24T00:41:22.352Z,6.53
2023-04-24T00:41:46.602Z,6.52
2023-04-24T00:42:08.305Z,6.50
2023-04-24T00:42:30.045Z,6.49
2023-04-24T00:42:51.814Z,6.48
2023-04-24T00:43:13.623Z,6.47
2023-04-24T00:43:35.616Z,6.47
2023-04-24T00:43:57.383Z,6.46
2023-04-24T00:44:19.184Z,6.45
2023-04-24T00:44:41.009Z,6.44
2023-04-24T00:45:02.752Z,6.44
2023-04-24T00:45:24.576Z,6.43
2023-04-24T00:45:46.402Z,6.42
2023-04-24T00:46:08.231Z,6.41
2023-04-24T00:46:30.200Z,6.40
2023-04-24T00:46:55.611Z,6.40
2023-04-24T00:47:17.549Z,6.39
2023-04-24T00:47:39.660Z,6.38
2023-04-24T00:48:03.901Z,6.37
2023-04-24T00:48:26.179Z,6.37
2023-04-24T00:48:50.420Z,6.36
2023-04-24T00:49:13.224Z,6.36
2023-04-24T00:49:34.973Z,6.36
2023-04-24T00:49:56.802Z,6.36
2023-04-24T00:50:18.783Z,6.37
2023-04-24T00:50:40.771Z,6.38
2023-04-24T00:51:02.566Z,6.40
2023-04-24T00:51:25.694Z,6.41
2023-04-24T00:51:48.068Z,6.43
2023-04-24T00:52:10.074Z,6.44
2023-04-24T00:52:33.770Z,6.46
2023-04-24T00:52:56.334Z,6.48
2023-04-24T00:53:18.383Z,6.49
2023-04-24T00:53:40.263Z,6.51
2023-04-24T00:54:04.318Z,6.52
2023-04-24T00:54:26.286Z,6.53
2023-04-24T00:54:48.174Z,6.54
2023-04-24T00:55:10.271Z,6.54
2023-04-24T00:55:32.878Z,6.55
2023-04-24T00:55:54.652Z,6.54
2023-04-24T00:56:16.742Z,6.55
2023-04-24T00:56:38.534Z,6.55
2023-04-24T00:57:01.646Z,6.54
2023-04-24T00:57:24.887Z,6.55
2023-04-24T00:57:46.848Z,6.54
2023-04-24T00:58:08.630Z,6.54
2023-04-24T00:58:31.728Z,6.54
2023-04-24T00:58:53.739Z,6.54
2023-04-24T00:59:17.168Z,6.54
2023-04-24T00:59:39.046Z,6.54
2023-04-24T01:00:00.749Z,6.54
2023-04-24T01:00:23.427Z,6.54
2023-04-24T01:00:46.233Z,6.53
2023-04-24T01:01:08.493Z,6.54
2023-04-24T01:01:31.614Z,6.55
2023-04-24T01:01:53.907Z,6.55
2023-04-24T01:02:16.899Z,6.55
2023-04-24T01:02:41.583Z,6.55
2023-04-24T01:03:03.876Z,6.57
2023-04-24T01:03:27.487Z,6.57
2023-04-24T01:03:52.409Z,6.57
2023-04-24T01:04:14.568Z,6.57
2023-04-24T01:04:37.425Z,6.58
2023-04-24T01:05:00.288Z,6.59
2023-04-24T01:05:22.234Z,6.59
2023-04-24T01:05:44.063Z,6.60
2023-04-24T01:06:05.950Z,6.60
2023-04-24T01:06:32.338Z,6.61
2023-04-24T01:06:54.129Z,6.61
2023-04-24T01:07:15.875Z,6.62
2023-04-24T01:07:37.691Z,6.61
2023-04-24T01:07:59.472Z,6.63
2023-04-24T01:08:21.470Z,6.63
2023-04-24T01:08:43.248Z,6.63
2023-04-24T01:09:05.158Z,6.65
2023-04-24T01:09:27.024Z,6.67
2023-04-24T01:09:50.047Z,6.68
2023-04-24T01:10:12.129Z,6.71
2023-04-24T01:10:34.213Z,6.74
2023-04-24T01:10:56.001Z,6.76
2023-04-24T01:11:17.705Z,6.79
2023-04-24T01:11:41.827Z,6.81
2023-04-24T01:12:03.806Z,6.84
2023-04-24T01:12:25.591Z,6.87
2023-04-24T01:12:47.579Z,6.89
2023-04-24T01:13:09.580Z,6.92
2023-04-24T01:13:31.763Z,6.94
2023-04-24T01:13:53.530Z,6.96
2023-04-24T01:14:15.341Z,6.98
2023-04-24T01:14:37.532Z,6.98
2023-04-24T01:14:59.319Z,7.00
2023-04-24T01:15:21.196Z,7.01
2023-04-24T01:15:43.027Z,7.02
2023-04-24T01:16:05.026Z,7.02
2023-04-24T01:16:27.256Z,7.03
2023-04-24T01:16:49.689Z,7.03
2023-04-24T01:17:12.168Z,7.03
2023-04-24T01:17:34.177Z,7.04
2023-04-24T01:17:55.901Z,7.05
2023-04-24T01:18:17.727Z,7.05
2023-04-24T01:18:39.516Z,7.05
2023-04-24T01:19:01.291Z,7.06
2023-04-24T01:19:23.004Z,7.06
2023-04-24T01:19:47.835Z,7.06
2023-04-24T01:20:10.030Z,7.06
2023-04-24T01:20:33.140Z,7.07
2023-04-24T01:20:55.536Z,7.07
2023-04-24T01:21:19.272Z,7.07
2023-04-24T01:21:41.052Z,7.07
2023-04-24T01:22:03.369Z,7.08
2023-04-24T01:22:25.126Z,7.08
2023-04-24T01:22:46.914Z,7.09
2023-04-24T01:23:08.619Z,7.10
2023-04-24T01:23:30.485Z,7.11
2023-04-24T01:23:52.263Z,7.13
2023-04-24T01:24:14.185Z,7.15
2023-04-24T01:24:36.148Z,7.16
2023-04-24T01:24:58.130Z,7.19
2023-04-24T01:25:19.916Z,7.21
2023-04-24T01:25:41.909Z,7.23
2023-04-24T01:26:03.690Z,7.25
2023-04-24T01:26:26.661Z,7.27
2023-04-24T01:26:48.493Z,7.29
2023-04-24T01:27:10.689Z,7.32
2023-04-24T01:27:32.459Z,7.33
2023-04-24T01:27:54.245Z,7.35
2023-04-24T01:28:16.138Z,7.35
2023-04-24T01:28:38.035Z,7.37
2023-04-24T01:29:01.143Z,7.37
2023-04-24T01:29:22.919Z,7.37
2023-04-24T01:29:44.902Z,7.38
2023-04-24T01:30:07.837Z,7.37
2023-04-24T01:30:31.032Z,7.37
2023-04-24T01:30:53.802Z,7.37
2023-04-24T01:31:18.726Z,7.37
2023-04-24T01:31:40.932Z,7.37
2023-04-24T01:32:03.599Z,7.37
2023-04-24T01:32:25.768Z,7.36
2023-04-24T01:32:47.682Z,7.36
2023-04-24T01:33:09.774Z,7.37
2023-04-24T01:33:31.881Z,7.36
2023-04-24T01:33:53.749Z,7.36
2023-04-24T01:34:15.729Z,7.36
2023-04-24T01:34:37.627Z,7.35
2023-04-24T01:34:59.426Z,7.36
2023-04-24T01:35:21.287Z,7.35
2023-04-24T01:35:43.188Z,7.35
2023-04-24T01:36:05.247Z,7.35
2023-04-24T01:36:28.484Z,7.35
2023-04-24T01:36:50.209Z,7.35
2023-04-24T01:37:12.057Z,7.35
2023-04-24T01:37:34.360Z,7.34
2023-04-24T01:37:56.010Z,7.35
2023-04-24T01:38:17.720Z,7.35
2023-04-24T01:38:39.507Z,7.34
2023-04-24T01:39:01.792Z,7.34
2023-04-24T01:39:26.899Z,7.33
2023-04-24T01:39:49.465Z,7.34
2023-04-24T01:40:11.752Z,7.34
2023-04-24T01:40:33.735Z,7.33
2023-04-24T01:40:55.632Z,7.33
2023-04-24T01:41:17.407Z,7.33
2023-04-24T01:41:40.421Z,7.33
2023-04-24T01:42:03.467Z,7.32
2023-04-24T01:42:25.422Z,7.32
2023-04-24T01:42:47.410Z,7.32
2023-04-24T01:43:09.128Z,7.32
2023-04-24T01:43:30.983Z,7.32
2023-04-24T01:43:53.583Z,7.32
2023-04-24T01:44:15.377Z,7.32
2023-04-24T01:44:37.252Z,7.32
2023-04-24T01:44:59.446Z,7.32
2023-04-24T01:45:21.233Z,7.33
2023-04-24T01:45:43.023Z,7.35
2023-04-24T01:46:04.811Z,7.36
2023-04-24T01:46:26.772Z,7.37
2023-04-24T01:46:48.789Z,7.40
2023-04-24T01:47:10.868Z,7.41
2023-04-24T01:47:32.656Z,7.43
2023-04-24T01:47:54.461Z,7.45
2023-04-24T01:48:16.423Z,7.47
2023-04-24T01:48:38.208Z,7.49
2023-04-24T01:49:00.816Z,7.50
2023-04-24T01:49:22.523Z,7.52
2023-04-24T01:49:44.926Z,7.53
2023-04-24T01:50:08.414Z,7.54
2023-04-24T01:50:30.200Z,7.55
2023-04-24T01:50:51.987Z,7.56
2023-04-24T01:51:13.870Z,7.56
2023-04-24T01:51:35.643Z,7.57
2023-04-24T01:51:58.567Z,7.58
2023-04-24T01:52:20.868Z,7.58
2023-04-24T01:52:43.059Z,7.58
2023-04-24T01:53:05.454Z,7.58
2023-04-24T01:53:27.342Z,7.58
2023-04-24T01:53:49.125Z,7.58
2023-04-24T01:54:10.908Z,7.58
2023-04-24T01:54:32.692Z,7.58
2023-04-24T01:54:54.703Z,7.58
2023-04-24T01:55:16.481Z,7.58
2023-04-24T01:55:40.504Z,7.57
2023-04-24T01:56:02.296Z,7.57
2023-04-24T01:56:24.989Z,7.57
2023-04-24T01:56:46.710Z,7.56
2023-04-24T01:57:08.561Z,7.56
2023-04-24T01:57:31.675Z,7.57
2023-04-24T01:57:53.678Z,7.56
2023-04-24T01:58:15.965Z,7.56
2023-04-24T01:58:37.755Z,7.55
2023-04-24T01:58:59.529Z,7.55
2023-04-24T01:59:21.720Z,7.55
2023-04-24T01:59:43.703Z,7.55
2023-04-24T02:00:06.878Z,7.54
2023-04-24T02:00:35.007Z,7.54
2023-04-24T02:01:02.796Z,7.56
2023-04-24T02:01:25.254Z,7.57
2023-04-24T02:01:47.105Z,7.59
2023-04-24T02:02:09.108Z,7.61
2023-04-24T02:02:31.198Z,7.62
2023-04-24T02:02:53.322Z,7.64
2023-04-24T02:03:15.251Z,7.67
2023-04-24T02:03:37.461Z,7.70
2023-04-24T02:03:59.500Z,7.71
2023-04-24T02:04:21.428Z,7.73
2023-04-24T02:04:43.491Z,7.74
2023-04-24T02:05:07.113Z,7.76
2023-04-24T02:05:31.524Z,7.76
2023-04-24T02:05:53.244Z,7.76
2023-04-24T02:06:15.012Z,7.77
2023-04-24T02:06:36.809Z,7.77
2023-04-24T02:06:58.596Z,7.76
2023-04-24T02:07:20.776Z,7.76
2023-04-24T02:07:42.574Z,7.76
2023-04-24T02:08:04.889Z,7.76
2023-04-24T02:08:26.740Z,7.75
2023-04-24T02:08:48.532Z,7.75
2023-04-24T02:09:11.871Z,7.75
2023-04-24T02:09:33.746Z,7.75
2023-04-24T02:09:56.643Z,7.74
2023-04-24T02:10:18.535Z,7.74
2023-04-24T02:10:40.285Z,7.73
2023-04-24T02:11:03.435Z,7.72
2023-04-24T02:11:26.646Z,7.73
2023-04-24T02:11:48.427Z,7.73
2023-04-24T02:12:10.211Z,7.72
2023-04-24T02:12:32.023Z,7.72
2023-04-24T02:12:53.887Z,7.71
2023-04-24T02:13:19.082Z,7.71
2023-04-24T02:13:40.979Z,7.71
2023-04-24T02:14:02.815Z,7.70
2023-04-24T02:14:24.603Z,7.70
2023-04-24T02:14:46.392Z,7.70
2023-04-24T02:15:08.397Z,7.70
2023-04-24T02:15:32.715Z,7.70
2023-04-24T02:15:54.417Z,7.70
2023-04-24T02:16:16.208Z,7.71
2023-04-24T02:16:38.083Z,7.73
2023-04-24T02:16:59.862Z,7.75
2023-04-24T02:17:21.609Z,7.76
2023-04-24T02:17:43.433Z,7.78
2023-04-24T02:18:05.581Z,7.79
2023-04-24T02:18:27.606Z,7.81
2023-04-24T02:18:49.319Z,7.83
2023-04-24T02:19:13.010Z,7.84
2023-04-24T02:19:34.798Z,7.85
2023-04-24T02:19:56.584Z,7.86
2023-04-24T02:20:18.797Z,7.86
2023-04-24T02:20:40.563Z,7.86
2023-04-24T02:21:02.353Z,7.86
2023-04-24T02:21:24.060Z,7.86
2023-04-24T02:21:45.828Z,7.85
2023-04-24T02:22:07.595Z,7.86
2023-04-24T02:22:29.886Z,7.86
2023-04-24T02:22:51.779Z,7.85
2023-04-24T02:23:14.789Z,7.84
2023-04-24T02:23:36.540Z,7.85
2023-04-24T02:23:58.360Z,7.84
2023-04-24T02:24:20.143Z,7.84
2023-04-24T02:24:41.844Z,7.84
2023-04-24T02:25:03.725Z,7.84
2023-04-24T02:25:25.504Z,7.83
2023-04-24T02:25:49.888Z,7.83
2023-04-24T02:26:12.894Z,7.83
2023-04-24T02:26:34.647Z,7.82
2023-04-24T02:26:56.944Z,7.82
2023-04-24T02:27:18.718Z,7.82
2023-04-24T02:27:40.702Z,7.81
2023-04-24T02:28:02.815Z,7.81
2023-04-24T02:28:24.577Z,7.81
2023-04-24T02:28:46.363Z,7.80
2023-04-24T02:29:08.148Z,7.80
2023-04-24T02:29:30.034Z,7.80
2023-04-24T02:29:51.818Z,7.80
2023-04-24T02:30:14.117Z,7.81
2023-04-24T02:30:36.108Z,7.81
2023-04-24T02:30:57.990Z,7.83
2023-04-24T02:31:19.786Z,7.84
2023-04-24T02:31:43.436Z,7.86
2023-04-24T02:32:05.321Z,7.88
2023-04-24T02:32:27.273Z,7.90
2023-04-24T02:32:49.068Z,7.91
2023-04-24T02:33:11.164Z,7.92
2023-04-24T02:33:33.244Z,7.94
2023-04-24T02:33:55.031Z,7.95
2023-04-24T02:34:17.528Z,7.95
2023-04-24T02:34:39.626Z,7.96
2023-04-24T02:35:01.578Z,7.97
2023-04-24T02:35:23.608Z,7.96
2023-04-24T02:35:45.598Z,7.97
2023-04-24T02:36:07.483Z,7.96
2023-04-24T02:36:29.254Z,7.96
2023-04-24T02:36:51.262Z,7.96
2023-04-24T02:37:15.386Z,7.95
2023-04-24T02:37:38.537Z,7.95
2023-04-24T02:38:00.608Z,7.95
2023-04-24T02:38:22.479Z,7.95
2023-04-24T02:38:44.280Z,7.95
2023-04-24T02:39:07.985Z,7.95
2023-04-24T02:39:29.770Z,7.95
2023-04-24T02:39:51.559Z,7.95
2023-04-24T02:40:13.884Z,7.95
2023-04-24T02:40:36.533Z,7.95
2023-04-24T02:40:58.344Z,7.94
2023-04-24T02:41:21.968Z,7.94
2023-04-24T02:41:44.368Z,7.94
2023-04-24T02:42:06.658Z,7.94
2023-04-24T02:42:28.545Z,7.94
2023-04-24T02:42:50.542Z,7.94
2023-04-24T02:43:12.730Z,7.94
2023-04-24T02:43:34.821Z,7.93
2023-04-24T02:43:56.605Z,7.93
2023-04-24T02:44:18.490Z,7.94
2023-04-24T02:44:40.274Z,7.94
2023-04-24T02:45:02.185Z,7.95
2023-04-24T02:45:24.358Z,7.97
2023-04-24T02:45:46.297Z,7.98
2023-04-24T02:46:08.166Z,8.00
2023-04-24T02:46:30.202Z,8.02
2023-04-24T02:46:51.965Z,8.03
2023-04-24T02:47:13.788Z,8.04
2023-04-24T02:47:35.591Z,8.06
2023-04-24T02:47:57.606Z,8.08
2023-04-24T02:48:19.589Z,8.09
2023-04-24T02:48:41.449Z,8.10
2023-04-24T02:49:03.673Z,8.10
2023-04-24T02:49:25.418Z,8.11
2023-04-24T02:49:47.303Z,8.10
2023-04-24T02:50:09.408Z,8.11
2023-04-24T02:50:33.021Z,8.10
2023-04-24T02:50:54.810Z,8.09
2023-04-24T02:51:16.590Z,8.09
2023-04-24T02:51:41.764Z,8.08
2023-04-24T02:52:03.844Z,8.08
2023-04-24T02:52:25.736Z,8.07
2023-04-24T02:52:47.513Z,8.06
2023-04-24T02:53:09.538Z,8.07
2023-04-24T02:53:31.811Z,8.05
2023-04-24T02:53:53.786Z,8.05
2023-04-24T02:54:15.722Z,8.05
2023-04-24T02:54:37.568Z,8.04
2023-04-24T02:54:59.340Z,8.04
2023-04-24T02:55:21.229Z,8.04
2023-04-24T02:55:43.013Z,8.03
2023-04-24T02:56:05.007Z,8.03
2023-04-24T02:56:26.802Z,8.03
2023-04-24T02:56:48.878Z,8.03
2023-04-24T02:57:10.807Z,8.03
2023-04-24T02:57:33.357Z,8.02
2023-04-24T02:57:55.257Z,8.03
2023-04-24T02:58:18.261Z,8.03
2023-04-24T02:58:40.072Z,8.03
2023-04-24T02:59:01.872Z,8.05
2023-04-24T02:59:23.703Z,8.06
2023-04-24T02:59:45.506Z,8.09
2023-04-24T03:00:08.416Z,8.10
2023-04-24T03:00:30.302Z,8.12
2023-04-24T03:00:56.417Z,8.15
2023-04-24T03:01:19.167Z,8.17
2023-04-24T03:01:41.038Z,8.19
2023-04-24T03:02:02.962Z,8.21
2023-04-24T03:02:24.873Z,8.23
2023-04-24T03:02:47.251Z,8.24
2023-04-24T03:03:09.292Z,8.24
2023-04-24T03:03:31.837Z,8.25
2023-04-24T03:03:53.758Z,8.25
2023-04-24T03:04:16.934Z,8.25
2023-04-24T03:04:39.117Z,8.25
2023-04-24T03:05:01.028Z,8.25
2023-04-24T03:05:22.823Z,8.24
2023-04-24T03:05:44.796Z,8.24
2023-04-24T03:06:09.556Z,8.24
2023-04-24T03:06:32.469Z,8.24
2023-04-24T03:06:55.815Z,8.23
2023-04-24T03:07:17.872Z,8.24
2023-04-24T03:07:39.755Z,8.23
2023-04-24T03:08:01.480Z,8.23
2023-04-24T03:08:23.210Z,8.24
2023-04-24T03:08:45.003Z,8.23
2023-04-24T03:09:06.891Z,8.23
2023-04-24T03:09:28.674Z,8.22
2023-04-24T03:09:50.680Z,8.22
2023-04-24T03:10:12.454Z,8.22
2023-04-24T03:10:34.295Z,8.21
2023-04-24T03:10:56.118Z,8.21
2023-04-24T03:11:17.904Z,8.21
2023-04-24T03:11:39.899Z,8.21
2023-04-24T03:12:03.649Z,8.21
2023-04-24T03:12:26.634Z,8.23
2023-04-24T03:12:48.417Z,8.24
2023-04-24T03:13:10.200Z,8.25
2023-04-24T03:13:31.987Z,8.27
2023-04-24T03:13:53.784Z,8.29
2023-04-24T03:14:15.762Z,8.30
2023-04-24T03:14:37.545Z,8.32
2023-04-24T03:14:59.330Z,8.34
2023-04-24T03:15:21.054Z,8.35
2023-04-24T03:15:42.919Z,8.36
2023-04-24T03:16:05.128Z,8.37
2023-04-24T03:16:27.000Z,8.37
2023-04-24T03:16:51.245Z,8.37
2023-04-24T03:17:13.103Z,8.37
2023-04-24T03:17:34.910Z,8.37
2023-04-24T03:17:57.040Z,8.36
2023-04-24T03:18:19.190Z,8.36
2023-04-24T03:18:42.597Z,8.35
2023-04-24T03:19:04.618Z,8.34
2023-04-24T03:19:26.784Z,8.34
2023-04-24T03:19:56.128Z,8.33
2023-04-24T03:20:18.118Z,8.32
2023-04-24T03:20:40.111Z,8.31
2023-04-24T03:21:02.779Z,8.31
2023-04-24T03:21:25.726Z,8.29
2023-04-24T03:21:48.874Z,8.29
2023-04-24T03:22:10.747Z,8.28
2023-04-24T03:22:33.969Z,8.27
2023-04-24T03:22:56.140Z,8.27
2023-04-24T03:23:18.019Z,8.26
2023-04-24T03:23:40.728Z,8.26
2023-04-24T03:24:03.431Z,8.25
2023-04-24T03:24:25.830Z,8.24
2023-04-24T03:24:47.749Z,8.24
2023-04-24T03:25:11.859Z,8.24
2023-04-24T03:25:33.738Z,8.25
2023-04-24T03:25:56.261Z,8.26
2023-04-24T03:26:18.035Z,8.27
2023-04-24T03:26:49.015Z,8.29
2023-04-24T03:27:31.866Z,8.32
2023-04-24T03:27:59.501Z,8.35
2023-04-24T03:28:47.478Z,8.36
2023-04-24T03:29:09.436Z,8.38
2023-04-24T03:29:31.221Z,8.38
2023-04-24T03:29:56.186Z,8.39
2023-04-24T03:30:22.154Z,8.39
2023-04-24T03:30:49.575Z,8.39
2023-04-24T03:31:11.686Z,8.40
2023-04-24T03:31:33.680Z,8.39
2023-04-24T03:31:55.649Z,8.39
2023-04-24T03:32:17.594Z,8.39
2023-04-24T03:32:40.615Z,8.39
2023-04-24T03:33:03.184Z,8.38
2023-04-24T03:33:26.763Z,8.38
2023-04-24T03:33:57.545Z,8.37
2023-04-24T03:34:19.570Z,8.37
2023-04-24T03:34:41.520Z,8.36
2023-04-24T03:35:04.545Z,8.37
2023-04-24T03:35:26.730Z,8.36
2023-04-24T03:35:48.899Z,8.36
2023-04-24T03:36:10.910Z,8.36
2023-04-24T03:36:35.151Z,8.36
2023-04-24T03:36:57.135Z,8.35
2023-04-24T03:37:19.185Z,8.35
2023-04-24T03:37:47.261Z,8.35
2023-04-24T03:38:33.789Z,8.35
2023-04-24T03:39:26.457Z,8.37
2023-04-24T03:39:51.214Z,8.38
2023-04-24T03:40:14.427Z,8.41
2023-04-24T03:40:37.032Z,8.42
2023-04-24T03:41:00.960Z,8.44
2023-04-24T03:41:32.998Z,8.47
2023-04-24T03:42:04.571Z,8.49
2023-04-24T03:42:37.245Z,8.52
2023-04-24T03:43:00.827Z,8.53
2023-04-24T03:43:22.916Z,8.53
2023-04-24T03:43:46.854Z,8.53
2023-04-24T03:44:08.639Z,8.53
2023-04-24T03:44:30.832Z,8.53
2023-04-24T03:44:52.620Z,8.53
2023-04-24T03:45:15.829Z,8.53
2023-04-24T03:45:38.675Z,8.53
2023-04-24T03:46:00.920Z,8.53
2023-04-24T03:46:23.246Z,8.51
2023-04-24T03:46:50.558Z,8.51
2023-04-24T03:47:13.969Z,8.51
2023-04-24T03:47:36.246Z,8.50
2023-04-24T03:47:58.997Z,8.50
2023-04-24T03:48:20.952Z,8.50
2023-04-24T03:48:42.936Z,8.50
2023-04-24T03:49:05.086Z,8.49
2023-04-24T03:49:29.426Z,8.48
2023-04-24T03:49:51.561Z,8.49
2023-04-24T03:50:13.555Z,8.48
2023-04-24T03:50:35.865Z,8.49
2023-04-24T03:50:57.862Z,8.49
2023-04-24T03:51:19.725Z,8.49
2023-04-24T03:51:42.427Z,8.51
2023-04-24T03:52:16.691Z,8.53
2023-04-24T03:52:38.748Z,8.55
2023-04-24T03:53:01.075Z,8.56
2023-04-24T03:53:31.924Z,8.59
2023-04-24T03:53:54.779Z,8.61
2023-04-24T03:54:16.983Z,8.62
2023-04-24T03:54:40.084Z,8.64
2023-04-24T03:55:01.820Z,8.66
2023-04-24T03:55:24.034Z,8.67
2023-04-24T03:55:45.843Z,8.68
2023-04-24T03:56:07.646Z,8.68
2023-04-24T03:56:29.823Z,8.68
2023-04-24T03:56:52.134Z,8.69
2023-04-24T03:57:13.933Z,8.69
2023-04-24T03:57:41.451Z,8.69
2023-04-24T03:58:09.538Z,8.68
2023-04-24T03:58:31.456Z,8.68
2023-04-24T03:58:53.205Z,8.68
2023-04-24T03:59:15.146Z,8.68
2023-04-24T03:59:38.431Z,8.68
2023-04-24T04:00:06.642Z,8.68
2023-04-24T04:00:36.409Z,8.68
2023-04-24T04:01:20.198Z,8.68
2023-04-24T04:02:02.231Z,8.68
2023-04-24T04:02:24.570Z,8.68
2023-04-24T04:02:47.091Z,8.68
2023-04-24T04:03:09.243Z,8.69
2023-04-24T04:03:31.410Z,8.69
2023-04-24T04:03:53.615Z,8.70
2023-04-24T04:04:18.774Z,8.72
2023-04-24T04:04:41.338Z,8.74
2023-04-24T04:05:03.499Z,8.76
2023-04-24T04:05:25.354Z,8.78
2023-04-24T04:05:47.239Z,8.79
2023-04-24T04:06:09.099Z,8.81
2023-04-24T04:06:31.933Z,8.83
2023-04-24T04:06:55.940Z,8.85
2023-04-24T04:07:17.942Z,8.87
2023-04-24T04:07:39.856Z,8.88
2023-04-24T04:08:02.018Z,8.88
2023-04-24T04:08:23.782Z,8.88
2023-04-24T04:08:45.589Z,8.89
2023-04-24T04:09:08.403Z,8.90
2023-04-24T04:09:31.194Z,8.90
2023-04-24T04:09:52.981Z,8.90
2023-04-24T04:10:15.487Z,8.90
2023-04-24T04:10:37.272Z,8.90
2023-04-24T04:11:00.292Z,8.91
2023-04-24T04:11:22.055Z,8.91
2023-04-24T04:11:43.842Z,8.92
2023-04-24T04:12:07.524Z,8.92
2023-04-24T04:12:29.469Z,8.92
2023-04-24T04:12:51.240Z,8.92
2023-04-24T04:13:13.237Z,8.92
2023-04-24T04:13:35.217Z,8.92
2023-04-24T04:13:57.925Z,8.92
2023-04-24T04:14:19.980Z,8.93
2023-04-24T04:14:43.052Z,8.93
2023-04-24T04:15:05.844Z,8.93
2023-04-24T04:15:28.029Z,8.93
2023-04-24T04:15:49.819Z,8.95
2023-04-24T04:16:11.988Z,8.96
2023-04-24T04:16:34.061Z,8.97
2023-04-24T04:16:58.028Z,8.99
2023-04-24T04:17:19.818Z,9.02
2023-04-24T04:17:41.823Z,9.04
2023-04-24T04:18:03.764Z,9.06
2023-04-24T04:18:26.091Z,9.08
2023-04-24T04:18:47.870Z,9.10
2023-04-24T04:19:10.782Z,9.12
2023-04-24T04:19:32.804Z,9.14
2023-04-24T04:19:54.524Z,9.15
2023-04-24T04:20:17.159Z,9.16
2023-04-24T04:20:38.951Z,9.17
2023-04-24T04:21:02.438Z,9.18
2023-04-24T04:21:24.459Z,9.18
2023-04-24T04:21:54.095Z,9.18
2023-04-24T04:22:21.625Z,9.18
2023-04-24T04:22:45.830Z,9.19
2023-04-24T04:23:11.675Z,9.18
2023-04-24T04:23:57.969Z,9.19
2023-04-24T04:24:28.346Z,9.19
2023-04-24T04:24:51.974Z,9.20
2023-04-24T04:25:15.188Z,9.20
2023-04-24T04:25:37.278Z,9.21
2023-04-24T04:25:59.266Z,9.22
2023-04-24T04:26:26.703Z,9.21
2023-04-24T04:27:03.362Z,9.22
2023-04-24T04:27:30.294Z,9.22
2023-04-24T04:28:00.770Z,9.23
2023-04-24T04:28:22.803Z,9.24
2023-04-24T04:28:45.888Z,9.26
2023-04-24T04:29:08.067Z,9.27
2023-04-24T04:29:32.626Z,9.30
2023-04-24T04:29:55.047Z,9.31
2023-04-24T04:30:16.911Z,9.33
2023-04-24T04:30:46.583Z,9.35
2023-04-24T04:31:08.926Z,9.37
2023-04-24T04:31:31.724Z,9.38
2023-04-24T04:31:56.418Z,9.39
2023-04-24T04:32:18.502Z,9.39
2023-04-24T04:32:40.372Z,9.40
2023-04-24T04:33:02.406Z,9.39
2023-04-24T04:33:27.165Z,9.39
2023-04-24T04:33:49.021Z,9.38
2023-04-24T04:34:10.904Z,9.38
2023-04-24T04:34:34.544Z,9.37
2023-04-24T04:34:56.410Z,9.36
2023-04-24T04:35:19.117Z,9.35
2023-04-24T04:35:41.424Z,9.34
2023-04-24T04:36:04.939Z,9.33
2023-04-24T04:36:27.642Z,9.32
2023-04-24T04:36:54.568Z,9.30
2023-04-24T04:37:25.070Z,9.28
2023-04-24T04:37:54.821Z,9.27
2023-04-24T04:38:38.308Z,9.24
2023-04-24T04:39:08.111Z,9.21
2023-04-24T04:39:49.552Z,9.19
2023-04-24T04:40:17.093Z,9.18
2023-04-24T04:40:45.683Z,9.16
2023-04-24T04:41:08.415Z,9.16
2023-04-24T04:41:31.414Z,9.15
2023-04-24T04:41:54.208Z,9.15
2023-04-24T04:42:16.901Z,9.15
2023-04-24T04:42:42.009Z,9.15
2023-04-24T04:43:04.470Z,9.16
2023-04-24T04:43:32.200Z,9.17
2023-04-24T04:43:54.376Z,9.19
2023-04-24T04:44:16.369Z,9.21
2023-04-24T04:44:39.803Z,9.23
2023-04-24T04:45:03.726Z,9.26
2023-04-24T04:45:35.520Z,9.29
2023-04-24T04:46:27.326Z,9.34
2023-04-24T04:46:58.062Z,9.38
2023-04-24T04:47:24.598Z,9.41
2023-04-24T04:47:47.391Z,9.43
2023-04-24T04:48:10.271Z,9.44
2023-04-24T04:48:32.569Z,9.45
2023-04-24T04:48:55.583Z,9.46
2023-04-24T04:49:18.025Z,9.47
2023-04-24T04:49:40.470Z,9.47
2023-04-24T04:50:06.655Z,9.49
2023-04-24T04:50:28.555Z,9.49
2023-04-24T04:50:52.077Z,9.50
2023-04-24T04:51:15.590Z,9.50
2023-04-24T04:51:37.581Z,9.51
2023-04-24T04:51:59.924Z,9.52
2023-04-24T04:52:26.321Z,9.52
2023-04-24T04:52:53.161Z,9.54
2023-04-24T04:53:20.263Z,9.54
2023-04-24T04:53:42.361Z,9.55
2023-04-24T04:54:04.125Z,9.56
2023-04-24T04:54:26.641Z,9.57
2023-04-24T04:54:48.732Z,9.59
2023-04-24T04:55:10.926Z,9.60
2023-04-24T04:55:58.899Z,9.62
2023-04-24T04:56:30.132Z,9.66
2023-04-24T04:56:52.277Z,9.67
2023-04-24T04:57:14.583Z,9.68
2023-04-24T04:57:36.868Z,9.70
2023-04-24T04:58:01.525Z,9.73
2023-04-24T04:58:23.815Z,9.75
2023-04-24T04:58:48.161Z,9.78
2023-04-24T04:59:12.067Z,9.82
2023-04-24T04:59:33.975Z,9.85
2023-04-24T04:59:59.957Z,9.88
2023-04-24T05:00:36.880Z,9.91
2023-04-24T05:01:03.715Z,9.95
2023-04-24T05:01:28.963Z,9.97
2023-04-24T05:01:51.427Z,9.98
2023-04-24T05:02:13.690Z,10.00
2023-04-24T05:02:35.701Z,10.01
2023-04-24T05:03:03.261Z,10.01
2023-04-24T05:03:35.367Z,10.02
2023-04-24T05:04:02.936Z,10.01
2023-04-24T05:04:25.285Z,10.01
2023-04-24T05:04:47.715Z,10.02
2023-04-24T05:05:10.342Z,10.01
2023-04-24T05:05:32.446Z,10.01
2023-04-24T05:05:54.358Z,10.02
2023-04-24T05:06:16.345Z,10.02
2023-04-24T05:06:38.926Z,10.02
2023-04-24T05:07:00.840Z,10.03
2023-04-24T05:07:24.244Z,10.03
2023-04-24T05:07:46.524Z,10.05